Time;durP1;ratioP1;P1;durP2;ratioP2;P2;SDS_P1;SDS_P2;PMS_P1;PMS_P2;Temp;Humidity;BMP_temperature;BMP_pressure;BME280_temperature;BME280_humidity;BME280_pressure;Samples;Min_cycle;Max_cycle;Signal;HPM_P1;HPM_P2
2023/05/23 00:01:57;;;;;;;8.63;6.40;;;;;;;;;;10328615;28;20026;-62
2023/05/23 00:06:58;;;;;;;9.43;6.27;;;;;;;;;;10340792;28;20464;-61
2023/05/23 00:11:58;;;;;;;9.77;7.03;;;;;;;;;;10325324;28;20100;-65
2023/05/23 00:16:59;;;;;;;13.07;6.33;;;;;;;;;;10341824;28;20038;-64
2023/05/23 00:22:00;;;;;;;11.38;6.57;;;;;;;;;;10350964;28;20651;-64
2023/05/23 00:27:00;;;;;;;9.43;6.73;;;;;;;;;;10338522;28;20022;-63
2023/05/23 00:32:01;;;;;;;10.18;6.72;;;;;;;;;;10326668;28;20460;-64
2023/05/23 00:37:01;;;;;;;9.70;7.20;;;;;;;;;;10348100;28;20018;-63
2023/05/23 00:42:04;;;;;;;9.10;6.53;;;;;;;;;;10325639;28;20033;-55
2023/05/23 00:47:06;;;;;;;8.90;7.03;;;;;;;;;;10326221;28;20474;-63
2023/05/23 00:52:06;;;;;;;8.27;6.90;;;;;;;;;;10326574;28;20428;-65
2023/05/23 00:57:07;;;;;;;9.50;7.20;;;;;;;;;;10325116;28;20030;-65
2023/05/23 01:02:07;;;;;;;12.55;7.68;;;;;;;;;;10339412;28;20452;-65
2023/05/23 01:07:09;;;;;;;9.88;6.75;;;;;;;;;;10322949;28;20394;-64
2023/05/23 01:12:19;;;;;;;11.45;7.65;;;;;;;;;;10324283;28;20050;-65
2023/05/23 01:17:26;;;;;;;9.63;6.85;;;;;;;;;;10327872;28;20437;-65
2023/05/23 01:22:43;;;;;;;11.32;8.00;;;;;;;;;;10325229;28;20038;-65
2023/05/23 01:28:00;;;;;;;12.98;7.75;;;;;;;;;;10324465;28;20045;-65
2023/05/23 01:33:01;;;;;;;9.30;7.10;;;;;;;;;;10312355;28;20412;-64
2023/05/23 01:38:01;;;;;;;10.95;6.85;;;;;;;;;;10325472;28;20022;-65
2023/05/23 01:43:02;;;;;;;10.05;6.75;;;;;;;;;;10324176;28;20064;-57
2023/05/23 01:48:02;;;;;;;9.75;6.82;;;;;;;;;;10321960;28;20448;-56
2023/05/23 01:53:03;;;;;;;12.43;7.43;;;;;;;;;;10347481;28;20402;-57
2023/05/23 01:58:04;;;;;;;9.68;6.90;;;;;;;;;;10323994;28;20085;-58
2023/05/23 02:03:04;;;;;;;9.93;6.50;;;;;;;;;;10321726;28;20034;-58
2023/05/23 02:08:05;;;;;;;7.55;6.35;;;;;;;;;;10322647;28;20053;-58
2023/05/23 02:13:05;;;;;;;11.27;6.47;;;;;;;;;;10323335;28;20269;-58
2023/05/23 02:18:06;;;;;;;10.20;6.85;;;;;;;;;;10323222;28;20590;-58
2023/05/23 02:23:06;;;;;;;7.18;6.43;;;;;;;;;;10322981;28;20026;-56
2023/05/23 02:28:07;;;;;;;8.07;6.75;;;;;;;;;;10322857;28;20037;-54
2023/05/23 02:33:07;;;;;;;10.35;6.28;;;;;;;;;;10335184;28;20092;-54
2023/05/23 02:38:08;;;;;;;10.27;6.85;;;;;;;;;;10335880;28;20099;-54
2023/05/23 02:43:08;;;;;;;10.02;6.80;;;;;;;;;;10321900;28;20054;-54
2023/05/23 02:48:08;;;;;;;10.67;6.53;;;;;;;;;;10335444;28;20030;-64
2023/05/23 02:53:09;;;;;;;9.37;6.17;;;;;;;;;;10334813;28;20455;-58
2023/05/23 02:58:09;;;;;;;12.33;6.40;;;;;;;;;;10320654;28;20995;-62
2023/05/23 03:03:10;;;;;;;7.27;6.17;;;;;;;;;;10327796;28;20488;-61
2023/05/23 03:08:11;;;;;;;9.63;6.20;;;;;;;;;;10330213;28;21029;-62
2023/05/23 03:13:11;;;;;;;9.25;5.80;;;;;;;;;;10338582;28;20032;-63
2023/05/23 03:18:11;;;;;;;9.93;6.00;;;;;;;;;;10332806;28;20038;-62
2023/05/23 03:23:12;;;;;;;9.93;5.97;;;;;;;;;;10334875;28;20835;-61
2023/05/23 03:28:12;;;;;;;8.20;6.17;;;;;;;;;;10334150;28;20018;-62
2023/05/23 03:33:13;;;;;;;9.00;6.27;;;;;;;;;;10341330;28;20460;-62
2023/05/23 03:38:14;;;;;;;7.77;5.53;;;;;;;;;;10328968;28;20456;-64
2023/05/23 03:43:14;;;;;;;8.05;6.18;;;;;;;;;;10341302;28;20486;-56
2023/05/23 03:48:15;;;;;;;13.37;5.97;;;;;;;;;;10341723;28;20081;-56
2023/05/23 03:53:15;;;;;;;7.80;6.45;;;;;;;;;;10327266;28;20763;-55
2023/05/23 03:58:15;;;;;;;9.32;5.95;;;;;;;;;;10328380;28;20022;-57
2023/05/23 04:03:16;;;;;;;9.77;6.63;;;;;;;;;;10327853;28;20042;-57
2023/05/23 04:08:20;;;;;;;7.18;6.40;;;;;;;;;;10340335;28;20459;-57
2023/05/23 04:13:22;;;;;;;10.55;6.55;;;;;;;;;;10351663;28;20027;-56
2023/05/23 04:18:22;;;;;;;7.10;6.28;;;;;;;;;;10340360;28;20038;-57
2023/05/23 04:23:23;;;;;;;9.13;6.07;;;;;;;;;;10327060;28;20030;-56
2023/05/23 04:28:25;;;;;;;8.83;6.73;;;;;;;;;;10326740;28;20033;-54
2023/05/23 04:33:27;;;;;;;7.40;6.15;;;;;;;;;;10326931;28;20814;-55
2023/05/23 04:38:27;;;;;;;8.60;6.32;;;;;;;;;;10326608;28;20014;-53
2023/05/23 04:43:28;;;;;;;8.00;6.47;;;;;;;;;;10312939;28;20093;-57
2023/05/23 04:48:30;;;;;;;8.15;5.78;;;;;;;;;;10327043;28;20270;-64
2023/05/23 04:53:30;;;;;;;11.68;6.60;;;;;;;;;;10324909;28;20165;-63
2023/05/23 04:58:31;;;;;;;9.93;6.70;;;;;;;;;;10326581;28;20040;-62
2023/05/23 05:03:31;;;;;;;13.50;6.70;;;;;;;;;;10324638;28;20087;-64
2023/05/23 05:08:32;;;;;;;11.03;7.10;;;;;;;;;;10326520;28;20821;-63
2023/05/23 05:13:32;;;;;;;10.10;7.07;;;;;;;;;;10335534;28;20468;-65
2023/05/23 05:18:32;;;;;;;12.43;6.70;;;;;;;;;;10323528;28;20173;-57
2023/05/23 05:23:33;;;;;;;8.63;6.53;;;;;;;;;;10325777;28;20472;-55
2023/05/23 05:28:33;;;;;;;11.43;6.90;;;;;;;;;;10321663;28;20040;-56
2023/05/23 05:33:34;;;;;;;16.80;7.03;;;;;;;;;;10327803;28;20553;-54
2023/05/23 05:38:35;;;;;;;11.23;5.50;;;;;;;;;;10355373;28;20101;-56
2023/05/23 05:43:35;;;;;;;12.43;6.17;;;;;;;;;;10333150;28;20085;-53
2023/05/23 05:48:36;;;;;;;7.33;5.77;;;;;;;;;;10324097;28;20827;-58
2023/05/23 05:53:36;;;;;;;10.13;6.53;;;;;;;;;;10322694;28;20487;-58
2023/05/23 05:58:36;;;;;;;13.27;5.87;;;;;;;;;;10314415;28;20368;-58
2023/05/23 06:03:37;;;;;;;7.00;5.60;;;;;;;;;;10335313;28;20041;-58
2023/05/23 06:08:37;;;;;;;12.80;5.73;;;;;;;;;;10325024;28;20872;-57
2023/05/23 06:13:38;;;;;;;10.20;5.80;;;;;;;;;;10322792;28;20037;-58
2023/05/23 06:18:38;;;;;;;10.02;5.55;;;;;;;;;;10324930;28;20460;-58
2023/05/23 06:23:38;;;;;;;7.07;5.47;;;;;;;;;;10336612;28;20025;-58
2023/05/23 06:28:39;;;;;;;10.60;5.90;;;;;;;;;;10339232;28;20453;-58
2023/05/23 06:33:39;;;;;;;8.88;4.80;;;;;;;;;;10324955;28;20073;-58
2023/05/23 06:38:40;;;;;;;6.93;5.70;;;;;;;;;;10331809;28;20034;-58
2023/05/23 06:43:40;;;;;;;6.47;4.65;;;;;;;;;;10330737;28;20042;-58
2023/05/23 06:48:41;;;;;;;7.07;4.97;;;;;;;;;;10331271;28;20030;-58
2023/05/23 06:53:41;;;;;;;7.10;4.57;;;;;;;;;;10331068;28;20819;-58
2023/05/23 06:58:41;;;;;;;7.17;4.83;;;;;;;;;;10342822;28;20791;-58
2023/05/23 07:03:44;;;;;;;9.33;5.60;;;;;;;;;;10331184;28;20041;-58
2023/05/23 07:08:45;;;;;;;7.85;4.68;;;;;;;;;;10346177;28;20032;-58
2023/05/23 07:13:46;;;;;;;10.63;4.85;;;;;;;;;;10366023;28;20023;-58
2023/05/23 07:18:46;;;;;;;8.73;5.07;;;;;;;;;;10342340;28;20053;-62
2023/05/23 07:23:46;;;;;;;9.03;5.27;;;;;;;;;;10332808;28;20030;-58
2023/05/23 07:28:47;;;;;;;6.67;4.77;;;;;;;;;;10329076;28;20453;-58
2023/05/23 07:33:47;;;;;;;6.72;4.80;;;;;;;;;;10328082;28;20976;-58
2023/05/23 07:38:48;;;;;;;5.47;4.80;;;;;;;;;;10328919;28;20496;-58
2023/05/23 07:43:48;;;;;;;7.75;4.63;;;;;;;;;;10326690;28;20117;-58
2023/05/23 07:48:49;;;;;;;6.03;4.80;;;;;;;;;;10326533;28;20027;-59
2023/05/23 07:53:49;;;;;;;6.55;3.97;;;;;;;;;;10328493;28;20821;-59
2023/05/23 07:58:50;;;;;;;9.70;4.53;;;;;;;;;;10328134;28;20030;-63
2023/05/23 08:03:51;;;;;;;5.10;4.47;;;;;;;;;;10329415;28;20038;-62
2023/05/23 08:08:51;;;;;;;5.83;4.13;;;;;;;;;;10340438;28;20030;-64
2023/05/23 08:13:51;;;;;;;4.97;4.23;;;;;;;;;;10326787;28;20459;-65
2023/05/23 08:18:52;;;;;;;7.97;4.33;;;;;;;;;;10339836;28;21005;-64
2023/05/23 08:23:52;;;;;;;4.50;4.00;;;;;;;;;;10339077;28;20479;-64
2023/05/23 08:28:53;;;;;;;7.67;4.63;;;;;;;;;;10328288;28;20460;-58
2023/05/23 08:33:53;;;;;;;7.60;5.57;;;;;;;;;;10345721;28;20623;-59
2023/05/23 08:38:53;;;;;;;5.73;4.43;;;;;;;;;;10337501;28;20373;-58
2023/05/23 08:43:54;;;;;;;6.83;4.33;;;;;;;;;;10337396;28;20483;-58
2023/05/23 08:48:55;;;;;;;7.95;4.15;;;;;;;;;;10332180;28;20452;-58
2023/05/23 08:53:57;;;;;;;7.80;4.78;;;;;;;;;;10346500;28;20018;-58
2023/05/23 08:58:57;;;;;;;5.47;4.43;;;;;;;;;;10355373;28;20269;-58
2023/05/23 09:04:03;;;;;;;6.03;4.50;;;;;;;;;;10347830;28;20572;-59
2023/05/23 09:09:04;;;;;;;5.30;4.00;;;;;;;;;;10336383;28;20205;-58
2023/05/23 09:14:06;;;;;;;7.80;4.07;;;;;;;;;;10324768;28;20516;-58
2023/05/23 09:19:11;;;;;;;6.45;4.45;;;;;;;;;;10328297;28;20029;-58
2023/05/23 09:24:11;;;;;;;6.60;4.20;;;;;;;;;;10330723;28;20057;-58
2023/05/23 09:29:12;;;;;;;7.55;4.68;;;;;;;;;;10325118;28;20161;-58
2023/05/23 09:34:12;;;;;;;10.17;4.40;;;;;;;;;;10325754;28;20026;-58
2023/05/23 09:39:12;;;;;;;6.17;4.33;;;;;;;;;;10326739;28;20440;-58
2023/05/23 09:44:13;;;;;;;10.40;5.30;;;;;;;;;;10325348;28;21029;-58
2023/05/23 09:49:16;;;;;;;8.77;5.03;;;;;;;;;;10327094;28;20018;-64
2023/05/23 09:54:17;;;;;;;6.72;4.30;;;;;;;;;;10327012;28;20452;-65
2023/05/23 09:59:22;;;;;;;12.03;4.60;;;;;;;;;;10326996;28;20018;-63
2023/05/23 10:04:24;;;;;;;5.13;4.63;;;;;;;;;;10332559;28;20475;-58
2023/05/23 10:09:26;;;;;;;5.80;4.28;;;;;;;;;;10337021;28;20157;-58
2023/05/23 10:14:28;;;;;;;6.50;5.05;;;;;;;;;;10335009;28;20272;-57
2023/05/23 10:19:37;;;;;;;4.57;4.10;;;;;;;;;;10324394;28;20531;-58
2023/05/23 10:24:37;;;;;;;5.47;4.22;;;;;;;;;;10323358;28;20133;-58
2023/05/23 10:29:38;;;;;;;6.65;4.28;;;;;;;;;;10321988;28;20027;-58
2023/05/23 10:34:53;;;;;;;5.07;4.10;;;;;;;;;;10336468;28;20033;-59
2023/05/23 10:40:00;;;;;;;10.55;4.47;;;;;;;;;;10344624;28;20025;-58
2023/05/23 10:45:14;;;;;;;4.55;4.10;;;;;;;;;;10335934;28;20039;-58
2023/05/23 10:50:32;;;;;;;5.75;4.13;;;;;;;;;;10322597;28;20377;-58
2023/05/23 10:55:33;;;;;;;;;;;;;;;;;;10323361;28;20022;-58
2023/05/23 11:00:34;;;;;;;6.57;4.38;;;;;;;;;;10322594;28;19914;-60
2023/05/23 11:05:37;;;;;;;6.65;4.40;;;;;;;;;;10323464;28;20030;-58
2023/05/23 11:10:59;;;;;;;6.28;4.75;;;;;;;;;;10327727;28;20109;-58
2023/05/23 11:15:59;;;;;;;5.47;4.38;;;;;;;;;;10326030;28;20053;-58
2023/05/23 11:21:00;;;;;;;5.75;4.88;;;;;;;;;;10339401;28;20029;-58
2023/05/23 11:26:00;;;;;;;5.55;4.88;;;;;;;;;;10340253;28;20030;-58
2023/05/23 11:31:01;;;;;;;5.70;4.38;;;;;;;;;;10343015;28;20040;-58
2023/05/23 11:36:02;;;;;;;7.00;4.43;;;;;;;;;;10330052;28;20026;-58
2023/05/23 11:41:02;;;;;;;5.40;4.88;;;;;;;;;;10327733;28;20026;-58
2023/05/23 11:46:08;;;;;;;5.07;4.50;;;;;;;;;;10327213;28;20038;-58
2023/05/23 11:51:09;;;;;;;5.43;4.22;;;;;;;;;;10328408;28;20461;-59
2023/05/23 11:56:10;;;;;;;6.10;4.50;;;;;;;;;;10326709;28;20030;-61
2023/05/23 12:01:12;;;;;;;7.57;4.93;;;;;;;;;;10327841;28;20093;-58
2023/05/23 12:06:20;;;;;;;5.28;4.40;;;;;;;;;;10329284;28;20081;-58
2023/05/23 12:11:22;;;;;;;6.93;4.67;;;;;;;;;;10328143;28;20030;-62
2023/05/23 12:16:22;;;;;;;8.18;5.10;;;;;;;;;;10325132;28;20500;-58
2023/05/23 12:21:39;;;;;;;8.93;4.97;;;;;;;;;;10326431;28;20028;-58
2023/05/23 12:27:09;;;;;;;5.20;4.55;;;;;;;;;;10327239;28;20472;-58
2023/05/23 12:32:10;;;;;;;6.63;5.45;;;;;;;;;;10320709;28;20074;-61
2023/05/23 12:37:13;;;;;;;5.72;4.88;;;;;;;;;;10327301;28;20049;-59
2023/05/23 12:42:13;;;;;;;6.55;5.03;;;;;;;;;;10338514;28;20034;-58
2023/05/23 12:47:14;;;;;;;6.10;5.28;;;;;;;;;;10324060;28;20046;-61
2023/05/23 12:52:14;;;;;;;7.53;5.20;;;;;;;;;;10325930;28;20072;-58
2023/05/23 12:57:16;;;;;;;7.72;5.38;;;;;;;;;;10321955;28;20472;-58
2023/05/23 13:02:16;;;;;;;8.13;4.60;;;;;;;;;;10332233;28;20030;-61
2023/05/23 13:07:16;;;;;;;6.63;5.10;;;;;;;;;;10323379;28;20478;-58
2023/05/23 13:12:17;;;;;;;9.10;4.80;;;;;;;;;;10322068;28;20405;-58
2023/05/23 13:17:17;;;;;;;10.00;6.05;;;;;;;;;;10328715;28;20518;-58
2023/05/23 13:22:18;;;;;;;6.50;4.70;;;;;;;;;;10326215;28;20566;-58
2023/05/23 13:27:18;;;;;;;11.33;6.13;;;;;;;;;;10340114;28;20468;-58
2023/05/23 13:32:18;;;;;;;16.07;6.40;;;;;;;;;;10332576;28;20484;-58
2023/05/23 13:37:19;;;;;;;18.03;6.57;;;;;;;;;;10333062;28;20467;-59
2023/05/23 13:42:19;;;;;;;12.13;7.23;;;;;;;;;;10336672;28;20054;-58
2023/05/23 13:47:20;;;;;;;16.20;7.13;;;;;;;;;;10328610;28;20519;-58
2023/05/23 13:52:20;;;;;;;15.57;7.10;;;;;;;;;;10328787;28;20022;-58
2023/05/23 13:57:21;;;;;;;12.00;8.17;;;;;;;;;;10326131;28;20041;-60
2023/05/23 14:02:21;;;;;;;12.55;6.60;;;;;;;;;;10326565;28;20483;-58
2023/05/23 14:07:22;;;;;;;16.13;7.22;;;;;;;;;;10335182;28;20038;-59
2023/05/23 14:12:22;;;;;;;10.10;6.20;;;;;;;;;;10323373;28;20023;-60
2023/05/23 14:17:23;;;;;;;16.20;6.40;;;;;;;;;;10335444;28;20452;-59
2023/05/23 14:22:23;;;;;;;9.33;6.37;;;;;;;;;;10324870;28;20456;-58
2023/05/23 14:27:23;;;;;;;15.33;6.60;;;;;;;;;;10335729;28;20031;-63
2023/05/23 14:32:24;;;;;;;11.18;6.05;;;;;;;;;;10334190;28;20558;-65
2023/05/23 14:37:24;;;;;;;16.63;6.22;;;;;;;;;;10324204;28;20026;-64
2023/05/23 14:42:25;;;;;;;12.30;6.17;;;;;;;;;;10335854;28;20023;-59
2023/05/23 14:47:26;;;;;;;13.60;6.30;;;;;;;;;;10322741;28;20857;-65
2023/05/23 14:52:26;;;;;;;8.80;5.43;;;;;;;;;;10322619;28;20458;-64
2023/05/23 14:57:26;;;;;;;12.82;5.90;;;;;;;;;;10328404;28;20037;-64
2023/05/23 15:02:27;;;;;;;13.40;6.27;;;;;;;;;;10349727;28;20266;-63
2023/05/23 15:07:27;;;;;;;8.10;5.13;;;;;;;;;;10330335;28;21021;-65
2023/05/23 15:12:28;;;;;;;13.10;5.50;;;;;;;;;;10330378;28;20456;-65
2023/05/23 15:17:32;;;;;;;11.90;5.70;;;;;;;;;;10330792;28;20041;-58
2023/05/23 15:22:32;;;;;;;6.88;5.15;;;;;;;;;;10330028;28;20096;-60
2023/05/23 15:27:33;;;;;;;8.25;5.32;;;;;;;;;;10330485;28;20022;-61
2023/05/23 15:32:33;;;;;;;12.40;5.60;;;;;;;;;;10329016;28;20033;-63
2023/05/23 15:37:33;;;;;;;9.53;5.63;;;;;;;;;;10331736;28;20450;-61
2023/05/23 15:42:34;;;;;;;10.30;6.07;;;;;;;;;;10329167;28;21010;-59
2023/05/23 15:47:35;;;;;;;8.18;5.13;;;;;;;;;;10329197;28;20377;-58
2023/05/23 15:52:35;;;;;;;7.88;5.07;;;;;;;;;;10329778;28;20030;-58
2023/05/23 15:57:36;;;;;;;7.47;4.80;;;;;;;;;;10336375;28;20026;-58
2023/05/23 16:02:36;;;;;;;10.20;5.17;;;;;;;;;;10333596;28;20506;-58
2023/05/23 16:07:37;;;;;;;7.03;4.80;;;;;;;;;;10318123;28;20476;-58
2023/05/23 16:12:37;;;;;;;7.82;5.13;;;;;;;;;;10323309;28;21118;-58
2023/05/23 16:17:38;;;;;;;7.40;4.43;;;;;;;;;;10338489;28;20149;-58
2023/05/23 16:22:39;;;;;;;16.43;6.33;;;;;;;;;;10330926;28;21045;-58
2023/05/23 16:27:40;;;;;;;14.32;6.25;;;;;;;;;;10324110;28;20036;-57
2023/05/23 16:32:40;;;;;;;12.00;5.30;;;;;;;;;;10344024;28;20036;-58
2023/05/23 16:37:43;;;;;;;7.47;4.57;;;;;;;;;;10337498;28;20032;-57
2023/05/23 16:42:43;;;;;;;9.48;5.40;;;;;;;;;;10340337;28;20500;-57
2023/05/23 16:47:43;;;;;;;9.67;5.30;;;;;;;;;;10325448;28;20049;-70
2023/05/23 16:52:44;;;;;;;9.90;5.07;;;;;;;;;;10325647;28;20462;-68
2023/05/23 16:57:44;;;;;;;8.73;5.95;;;;;;;;;;10324069;28;20459;-70
2023/05/23 17:02:45;;;;;;;7.82;4.60;;;;;;;;;;10332225;28;20089;-70
2023/05/23 17:07:46;;;;;;;6.60;4.60;;;;;;;;;;10337406;28;20034;-57
2023/05/23 17:12:46;;;;;;;8.27;4.97;;;;;;;;;;10325029;28;20388;-70
2023/05/23 17:17:47;;;;;;;8.77;4.35;;;;;;;;;;10324148;28;20505;-70
2023/05/23 17:22:48;;;;;;;6.57;4.60;;;;;;;;;;10329723;28;20053;-69
2023/05/23 17:27:48;;;;;;;12.23;6.10;;;;;;;;;;10325484;28;20452;-68
2023/05/23 17:32:48;;;;;;;12.35;6.00;;;;;;;;;;10327832;28;20485;-70
2023/05/23 17:37:49;;;;;;;9.97;6.13;;;;;;;;;;10325126;28;20485;-69
2023/05/23 17:42:50;;;;;;;12.40;6.45;;;;;;;;;;10326735;28;20472;-57
2023/05/23 17:47:50;;;;;;;12.85;5.32;;;;;;;;;;10330263;28;20252;-70
2023/05/23 17:52:50;;;;;;;9.27;4.43;;;;;;;;;;10333728;28;20670;-62
2023/05/23 17:57:51;;;;;;;9.80;4.50;;;;;;;;;;10324597;28;20480;-65
2023/05/23 18:02:52;;;;;;;6.00;4.10;;;;;;;;;;10324150;28;20509;-65
2023/05/23 18:07:52;;;;;;;7.50;4.00;;;;;;;;;;10333794;28;20033;-66
2023/05/23 18:12:53;;;;;;;6.17;4.30;;;;;;;;;;10323137;28;20462;-66
2023/05/23 18:17:54;;;;;;;7.40;4.47;;;;;;;;;;10332055;28;20563;-65
2023/05/23 18:22:55;;;;;;;12.90;4.05;;;;;;;;;;10323260;28;20983;-65
2023/05/23 18:28:01;;;;;;;8.60;4.22;;;;;;;;;;10322851;28;20026;-60
2023/05/23 18:33:01;;;;;;;15.50;3.88;;;;;;;;;;10330629;28;20482;-68
2023/05/23 18:38:02;;;;;;;25.03;4.17;;;;;;;;;;10331547;28;20031;-61
2023/05/23 18:43:02;;;;;;;8.85;3.63;;;;;;;;;;10327871;28;20848;-58
2023/05/23 18:48:03;;;;;;;7.80;3.83;;;;;;;;;;10246349;28;20323;-58
2023/05/23 18:53:03;;;;;;;11.13;4.25;;;;;;;;;;10290693;28;20550;-58
2023/05/23 18:58:04;;;;;;;9.25;3.95;;;;;;;;;;10313535;28;20389;-58
2023/05/23 19:03:11;;;;;;;13.07;4.38;;;;;;;;;;10297820;28;20034;-58
2023/05/23 19:08:11;;;;;;;25.30;5.40;;;;;;;;;;10298568;28;20050;-58
2023/05/23 19:13:12;;;;;;;19.70;4.82;;;;;;;;;;10338587;28;20030;-58
2023/05/23 19:18:22;;;;;;;10.50;4.20;;;;;;;;;;10328347;28;20023;-58
2023/05/23 19:23:22;;;;;;;17.35;4.85;;;;;;;;;;10312451;28;20045;-58
2023/05/23 19:28:23;;;;;;;15.63;5.78;;;;;;;;;;10265581;28;20336;-58
2023/05/23 19:33:24;;;;;;;14.93;4.50;;;;;;;;;;10234961;28;20242;-58
2023/05/23 19:38:28;;;;;;;13.18;4.60;;;;;;;;;;10287361;28;21150;-58
2023/05/23 19:43:29;;;;;;;9.35;4.05;;;;;;;;;;10288646;28;20049;-59
2023/05/23 19:48:34;;;;;;;10.10;4.27;;;;;;;;;;10264298;28;20051;-59
2023/05/23 19:53:42;;;;;;;8.80;4.20;;;;;;;;;;10265645;28;20808;-58
2023/05/23 19:58:42;;;;;;;8.83;4.07;;;;;;;;;;10272794;28;20365;-58
2023/05/23 20:03:43;;;;;;;9.52;3.75;;;;;;;;;;10280334;28;20027;-58
2023/05/23 20:08:43;;;;;;;9.80;3.90;;;;;;;;;;10288209;28;20475;-62
2023/05/23 20:13:44;;;;;;;14.07;4.20;;;;;;;;;;10299132;28;20027;-58
2023/05/23 20:18:44;;;;;;;12.63;3.90;;;;;;;;;;10288919;28;20565;-59
2023/05/23 20:23:51;;;;;;;5.90;3.53;;;;;;;;;;10301409;28;20892;-58
2023/05/23 20:28:52;;;;;;;11.30;4.15;;;;;;;;;;10285600;28;20598;-58
2023/05/23 20:33:58;;;;;;;6.43;3.85;;;;;;;;;;10299273;28;20034;-59
2023/05/23 20:39:02;;;;;;;8.27;3.70;;;;;;;;;;10284065;28;20042;-58
2023/05/23 20:44:02;;;;;;;8.13;4.20;;;;;;;;;;10284945;28;20449;-58
2023/05/23 20:49:03;;;;;;;7.27;3.50;;;;;;;;;;10275382;28;20033;-58
2023/05/23 20:54:13;;;;;;;7.43;3.53;;;;;;;;;;10262135;28;20553;-59
2023/05/23 20:59:15;;;;;;;6.30;3.40;;;;;;;;;;10245526;28;20031;-58
2023/05/23 21:04:15;;;;;;;5.50;3.85;;;;;;;;;;10280114;28;20043;-58
2023/05/23 21:09:16;;;;;;;7.37;3.40;;;;;;;;;;10294271;28;20030;-58
2023/05/23 21:14:16;;;;;;;5.00;3.97;;;;;;;;;;10289228;28;20477;-58
2023/05/23 21:19:16;;;;;;;5.13;3.50;;;;;;;;;;10243824;28;20038;-58
2023/05/23 21:24:17;;;;;;;3.70;3.27;;;;;;;;;;10302748;28;20483;-58
2023/05/23 21:29:17;;;;;;;5.95;3.60;;;;;;;;;;10297600;28;20456;-59
2023/05/23 21:34:18;;;;;;;5.93;3.40;;;;;;;;;;10295028;28;20023;-58
2023/05/23 21:39:19;;;;;;;11.70;3.47;;;;;;;;;;10286829;28;20472;-58
2023/05/23 21:44:20;;;;;;;4.97;3.50;;;;;;;;;;10273837;28;20047;-58
2023/05/23 21:49:20;;;;;;;4.20;3.15;;;;;;;;;;10292718;28;20488;-58
2023/05/23 21:54:21;;;;;;;5.72;3.70;;;;;;;;;;10275458;28;20031;-58
2023/05/23 21:59:21;;;;;;;6.95;4.25;;;;;;;;;;10307413;28;20034;-58
2023/05/23 22:04:22;;;;;;;10.77;4.47;;;;;;;;;;10295260;28;20097;-59
2023/05/23 22:09:22;;;;;;;12.70;4.47;;;;;;;;;;10287648;28;20027;-58
2023/05/23 22:14:22;;;;;;;12.33;4.80;;;;;;;;;;10286129;28;20469;-59
2023/05/23 22:19:24;;;;;;;12.47;4.43;;;;;;;;;;10283984;28;21162;-64
2023/05/23 22:24:25;;;;;;;9.75;4.25;;;;;;;;;;10272853;28;20526;-61
2023/05/23 22:29:25;;;;;;;12.27;4.43;;;;;;;;;;10296901;28;20026;-63
2023/05/23 22:34:27;;;;;;;13.00;4.00;;;;;;;;;;10268786;28;20762;-62
2023/05/23 22:39:28;;;;;;;8.50;4.63;;;;;;;;;;10292299;28;20054;-60
2023/05/23 22:44:29;;;;;;;12.98;3.80;;;;;;;;;;10280820;28;20137;-60
2023/05/23 22:49:29;;;;;;;9.68;4.50;;;;;;;;;;10279706;28;20030;-64
2023/05/23 22:54:30;;;;;;;10.73;3.95;;;;;;;;;;10280085;28;20034;-62
2023/05/23 22:59:31;;;;;;;8.17;3.97;;;;;;;;;;10278939;28;20042;-64
2023/05/23 23:04:31;;;;;;;7.50;3.92;;;;;;;;;;10279168;28;20563;-63
2023/05/23 23:09:32;;;;;;;6.53;3.90;;;;;;;;;;10282092;28;20033;-63
2023/05/23 23:14:32;;;;;;;6.50;4.10;;;;;;;;;;10299947;28;21022;-64
2023/05/23 23:19:34;;;;;;;6.60;4.17;;;;;;;;;;10276746;28;20286;-63
2023/05/23 23:24:34;;;;;;;5.75;3.90;;;;;;;;;;10283654;28;20483;-63
2023/05/23 23:29:34;;;;;;;6.15;3.95;;;;;;;;;;10276877;28;20501;-63
2023/05/23 23:34:35;;;;;;;10.93;3.60;;;;;;;;;;10270097;28;20391;-64
2023/05/23 23:39:35;;;;;;;6.75;4.38;;;;;;;;;;10287363;28;20472;-64
2023/05/23 23:44:36;;;;;;;5.37;3.93;;;;;;;;;;10292381;28;20042;-50
2023/05/23 23:49:36;;;;;;;7.53;4.20;;;;;;;;;;10267033;28;20450;-50
2023/05/23 23:54:36;;;;;;;6.27;4.00;;;;;;;;;;10280384;28;20061;-54
2023/05/23 23:59:37;;;;;;;5.03;3.80;;;;;;;;;;10286954;28;20564;-52
